createdAt,value
2017-01-25T00:01:05.120Z,99.106
2017-01-25T00:03:57.898Z,99.218
2017-01-25T00:06:49.186Z,98.885
2017-01-25T00:09:43.821Z,99.203
2017-01-25T00:12:36.793Z,99.124
2017-01-25T00:15:28.108Z,99.027
2017-01-25T00:18:22.887Z,99.139
2017-01-25T00:21:15.140Z,98.982
2017-01-25T00:24:07.188Z,98.874
2017-01-25T00:27:02.006Z,98.881
2017-01-25T00:29:53.282Z,98.688
2017-01-25T00:32:46.341Z,98.787
2017-01-25T00:35:41.124Z,98.697
2017-01-25T00:38:34.108Z,98.781
2017-01-25T00:41:27.058Z,99.030
2017-01-25T00:44:18.272Z,99.087
2017-01-25T00:47:12.878Z,99.059
2017-01-25T00:50:04.327Z,99.228
2017-01-25T00:52:57.273Z,99.142
2017-01-25T00:55:50.272Z,99.082
2017-01-25T00:58:45.134Z,99.040
2017-01-25T01:01:37.295Z,98.994
2017-01-25T01:04:31.124Z,99.198
2017-01-25T01:07:22.468Z,99.239
2017-01-25T01:10:17.252Z,99.148
2017-01-25T01:13:08.475Z,99.094
2017-01-25T01:16:01.892Z,99.088
2017-01-25T01:18:56.649Z,99.340
2017-01-25T01:21:49.849Z,99.173
2017-01-25T01:24:42.774Z,99.247
2017-01-25T01:27:35.838Z,99.045
2017-01-25T01:30:29.091Z,99.149
2017-01-25T01:33:20.559Z,99.293
2017-01-25T01:36:15.248Z,99.222
2017-01-25T01:39:08.304Z,99.393
2017-01-25T01:41:59.570Z,99.266
2017-01-25T01:44:55.264Z,99.231
2017-01-25T01:47:45.666Z,98.985
2017-01-25T01:50:38.522Z,98.875
2017-01-25T01:53:31.515Z,99.015
2017-01-25T01:56:24.523Z,98.840
2017-01-25T01:59:19.362Z,98.794
2017-01-25T02:02:10.668Z,98.825
2017-01-25T02:05:04.596Z,98.938
2017-01-25T02:07:58.381Z,99.089
2017-01-25T02:10:51.319Z,99.099
2017-01-25T02:13:42.619Z,98.874
2017-01-25T02:16:35.615Z,98.732
2017-01-25T02:19:30.371Z,98.826
2017-01-25T02:22:21.627Z,98.904
2017-01-25T02:25:16.353Z,98.971
2017-01-25T02:28:09.444Z,98.916
2017-01-25T02:31:00.696Z,98.644
2017-01-25T02:33:53.775Z,98.523
2017-01-25T02:36:48.628Z,98.734
2017-01-25T02:39:40.110Z,98.471
2017-01-25T02:42:34.839Z,98.515
2017-01-25T02:45:27.781Z,98.288
2017-01-25T02:48:19.186Z,98.369
2017-01-25T02:51:13.931Z,98.428
2017-01-25T02:54:06.861Z,98.288
2017-01-25T02:56:59.952Z,98.258
2017-01-25T02:59:51.261Z,98.438
2017-01-25T03:02:44.480Z,98.349
2017-01-25T03:05:39.228Z,98.129
2017-01-25T03:08:32.265Z,98.164
2017-01-25T03:11:23.572Z,98.213
2017-01-25T03:14:18.258Z,98.236
2017-01-25T03:17:11.466Z,98.145
2017-01-25T03:20:04.425Z,97.942
2017-01-25T03:22:57.500Z,97.933
2017-01-25T03:25:48.649Z,98.181
2017-01-25T03:28:43.065Z,98.123
2017-01-25T03:31:36.092Z,98.133
2017-01-25T03:34:27.165Z,98.289
2017-01-25T03:37:21.741Z,98.348
2017-01-25T03:40:14.648Z,98.308
2017-01-25T03:43:05.791Z,98.665
2017-01-25T03:45:58.771Z,98.747
2017-01-25T03:48:53.396Z,98.547
2017-01-25T03:51:45.358Z,98.190
2017-01-25T03:54:39.088Z,98.528
2017-01-25T03:57:32.052Z,98.609
2017-01-25T04:00:25.013Z,98.639
2017-01-25T04:03:17.983Z,98.383
2017-01-25T04:06:09.189Z,98.303
2017-01-25T04:09:02.143Z,98.277
2017-01-25T04:11:55.083Z,98.336
2017-01-25T04:14:49.757Z,98.381
2017-01-25T04:17:40.954Z,98.391
2017-01-25T04:20:33.909Z,98.475
2017-01-25T04:23:28.480Z,98.394
2017-01-25T04:26:20.618Z,98.372
2017-01-25T04:29:14.195Z,98.524
2017-01-25T04:32:07.147Z,98.556
2017-01-25T04:35:00.002Z,98.406
2017-01-25T04:37:52.937Z,98.359
2017-01-25T04:40:44.198Z,98.544
2017-01-25T04:43:37.168Z,98.435
2017-01-25T04:46:32.686Z,98.528
2017-01-25T04:49:24.677Z,98.407
2017-01-25T04:55:10.524Z,98.291
2017-01-25T04:58:01.763Z,98.491
2017-01-25T05:00:54.636Z,98.211
2017-01-25T05:03:47.487Z,98.139
2017-01-25T05:06:40.392Z,98.339
2017-01-25T05:09:35.026Z,98.197
2017-01-25T05:12:26.369Z,98.380
2017-01-25T05:15:20.980Z,98.188
2017-01-25T05:18:13.979Z,98.037
2017-01-25T05:21:06.990Z,98.144
2017-01-25T05:23:58.306Z,98.139
2017-01-25T05:26:51.288Z,98.066
2017-01-25T05:29:44.067Z,97.794
2017-01-25T05:32:37.085Z,98.097
2017-01-25T05:35:31.786Z,98.000
2017-01-25T05:38:23.667Z,98.364
2017-01-25T05:41:17.621Z,98.109
2017-01-25T05:44:08.856Z,98.176
2017-01-25T05:47:03.431Z,98.375
2017-01-25T05:49:56.518Z,98.389
2017-01-25T05:52:47.591Z,98.185
2017-01-25T05:55:40.555Z,98.335
2017-01-25T05:58:33.459Z,98.569
2017-01-25T06:01:28.077Z,98.421
2017-01-25T06:04:21.035Z,98.220
2017-01-25T06:07:12.245Z,98.036
2017-01-25T06:10:06.862Z,97.977
2017-01-25T06:12:59.826Z,98.075
2017-01-25T06:15:51.066Z,98.058
2017-01-25T06:18:45.651Z,97.955
2017-01-25T06:21:36.730Z,97.855
2017-01-25T06:24:32.213Z,97.991
2017-01-25T06:27:22.516Z,97.911
2017-01-25T06:30:17.126Z,98.005
2017-01-25T06:33:10.105Z,98.020
2017-01-25T06:36:03.149Z,97.900
2017-01-25T06:38:54.331Z,97.920
2017-01-25T06:41:49.598Z,97.881
2017-01-25T06:44:40.785Z,97.979
2017-01-25T06:47:34.028Z,97.802
2017-01-25T06:50:27.006Z,97.917
2017-01-25T06:53:21.685Z,97.871
2017-01-25T06:56:13.005Z,97.694
2017-01-25T06:59:05.967Z,97.699
2017-01-25T07:01:58.867Z,97.863
2017-01-25T07:04:51.704Z,98.015
2017-01-25T07:07:44.616Z,97.840
2017-01-25T07:10:37.455Z,98.203
2017-01-25T07:13:30.357Z,98.177
2017-01-25T07:16:23.369Z,97.994
2017-01-25T07:19:16.200Z,97.939
2017-01-25T07:22:09.755Z,97.889
2017-01-25T07:25:02.704Z,97.948
2017-01-25T07:27:56.248Z,97.879
2017-01-25T07:33:43.212Z,97.932
2017-01-25T07:36:34.345Z,98.052
2017-01-25T07:39:27.199Z,98.066
2017-01-25T07:42:21.145Z,98.251
2017-01-25T07:45:13.035Z,98.121
2017-01-25T07:48:05.995Z,98.131
2017-01-25T07:51:00.620Z,98.086
2017-01-25T07:53:54.450Z,97.964
2017-01-25T07:56:45.030Z,97.994
2017-01-25T07:59:37.992Z,97.878
2017-01-25T08:02:31.029Z,98.160
2017-01-25T08:05:23.903Z,98.090
2017-01-25T08:08:18.548Z,98.227
2017-01-25T08:11:11.649Z,98.249
2017-01-25T08:14:03.468Z,98.213
2017-01-25T08:16:57.305Z,98.019
2017-01-25T08:19:49.256Z,97.929
2017-01-25T08:22:43.804Z,98.141
2017-01-25T08:25:34.998Z,98.302
2017-01-25T08:28:28.012Z,98.249
2017-01-25T08:31:21.027Z,98.102
2017-01-25T08:34:14.000Z,97.957
2017-01-25T08:37:08.763Z,97.945
2017-01-25T08:40:01.634Z,97.646
2017-01-25T08:42:53.838Z,97.638
2017-01-25T08:45:47.616Z,97.519
2017-01-25T08:48:38.898Z,97.392
2017-01-25T08:51:33.479Z,97.250
2017-01-25T08:54:24.812Z,97.252
2017-01-25T08:57:17.783Z,97.225
2017-01-25T09:00:10.818Z,97.265
2017-01-25T09:03:03.782Z,97.309
2017-01-25T09:05:58.517Z,97.231
2017-01-25T09:08:49.952Z,97.453
2017-01-25T09:11:44.439Z,96.847
2017-01-25T09:14:37.505Z,97.052
2017-01-25T09:17:30.658Z,96.902
2017-01-25T09:20:23.591Z,96.680
2017-01-25T09:23:16.680Z,96.798
2017-01-25T09:26:09.780Z,96.707
2017-01-25T09:29:01.197Z,96.612
2017-01-25T09:31:55.880Z,96.876
2017-01-25T09:34:47.233Z,97.130
2017-01-25T09:37:41.885Z,97.207
2017-01-25T09:40:34.849Z,96.872
2017-01-25T09:43:27.833Z,97.172
2017-01-25T09:46:19.929Z,96.887
2017-01-25T09:49:12.338Z,96.599
2017-01-25T09:52:07.842Z,96.708
2017-01-25T09:54:58.114Z,96.728
2017-01-25T09:57:52.219Z,96.720
2017-01-25T10:00:46.252Z,96.807
2017-01-25T10:03:40.215Z,96.724
2017-01-25T10:06:30.516Z,96.375
2017-01-25T10:09:23.608Z,96.181
2017-01-25T10:12:19.172Z,96.134
2017-01-25T10:15:11.145Z,96.020
2017-01-25T10:18:02.305Z,96.227
2017-01-25T10:20:56.781Z,96.227
2017-01-25T10:23:49.636Z,95.977
2017-01-25T10:26:42.790Z,96.062
2017-01-25T10:29:34.026Z,95.608
2017-01-25T10:32:27.012Z,95.948
2017-01-25T10:35:21.559Z,95.931
2017-01-25T10:38:12.901Z,95.615
2017-01-25T10:41:05.799Z,95.811
2017-01-25T10:43:58.657Z,95.734
2017-01-25T10:46:51.504Z,95.813
2017-01-25T10:49:46.124Z,95.958
2017-01-25T10:52:37.284Z,95.416
2017-01-25T10:55:30.201Z,95.512
2017-01-25T10:58:23.121Z,95.362
2017-01-25T11:01:17.858Z,95.942
2017-01-25T11:04:10.791Z,96.105
2017-01-25T11:07:03.832Z,95.752
2017-01-25T11:09:56.564Z,95.800
2017-01-25T11:12:49.400Z,95.570
2017-01-25T11:15:40.686Z,95.861
2017-01-25T11:18:33.451Z,95.760
2017-01-25T11:21:28.089Z,96.082
2017-01-25T11:24:21.160Z,95.577
2017-01-25T11:27:14.212Z,95.578
2017-01-25T11:30:08.135Z,95.632
2017-01-25T11:32:58.317Z,95.499
2017-01-25T11:35:51.243Z,95.823
2017-01-25T11:38:44.149Z,96.061
2017-01-25T11:41:39.175Z,95.913
2017-01-25T11:44:31.906Z,95.621
2017-01-25T11:47:24.941Z,95.440
2017-01-25T11:50:16.214Z,95.503
2017-01-25T11:53:09.269Z,95.393
2017-01-25T11:56:03.918Z,95.683
2017-01-25T11:58:55.302Z,95.328
2017-01-25T12:01:50.051Z,94.916
2017-01-25T12:04:41.333Z,95.478
2017-01-25T12:07:36.082Z,95.374
2017-01-25T12:10:27.348Z,95.375
2017-01-25T12:13:21.940Z,95.446
2017-01-25T12:16:13.336Z,95.315
2017-01-25T12:19:09.056Z,95.148
2017-01-25T12:21:59.710Z,95.254
2017-01-25T12:24:51.916Z,94.939
2017-01-25T12:27:44.638Z,94.876
2017-01-25T12:30:37.690Z,95.007
2017-01-25T12:33:30.654Z,95.212
2017-01-25T12:36:23.626Z,95.094
2017-01-25T12:39:16.576Z,94.685
2017-01-25T12:42:09.663Z,94.707
2017-01-25T12:45:03.111Z,95.223
2017-01-25T12:47:57.334Z,95.312
2017-01-25T12:50:48.895Z,94.510
2017-01-25T12:53:41.467Z,94.939
2017-01-25T12:56:34.512Z,94.548
2017-01-25T12:59:27.933Z,94.904
2017-01-25T13:02:20.374Z,94.569
2017-01-25T13:05:13.257Z,94.429
2017-01-25T13:08:06.248Z,94.600
2017-01-25T13:11:00.889Z,94.338
2017-01-25T13:13:54.121Z,94.417
2017-01-25T13:16:45.031Z,94.354
2017-01-25T13:19:38.550Z,94.080
2017-01-25T13:22:34.654Z,94.203
2017-01-25T13:25:25.289Z,94.444
2017-01-25T13:28:17.927Z,94.157
2017-01-25T13:31:13.213Z,93.760
2017-01-25T13:34:03.981Z,93.800
2017-01-25T13:36:57.267Z,93.294
2017-01-25T13:39:51.289Z,93.919
2017-01-25T13:42:42.638Z,94.014
2017-01-25T13:45:35.908Z,94.223
2017-01-25T13:48:28.432Z,94.058
2017-01-25T13:51:23.051Z,94.433
2017-01-25T13:54:14.317Z,94.120
2017-01-25T13:57:09.137Z,94.151
2017-01-25T14:00:00.369Z,93.997
2017-01-25T14:02:54.956Z,94.100
2017-01-25T14:05:47.954Z,93.992
2017-01-25T14:08:40.927Z,93.789
2017-01-25T14:11:32.072Z,93.411
2017-01-25T14:14:25.005Z,94.014
2017-01-25T14:17:19.613Z,94.255
2017-01-25T14:20:10.991Z,94.000
2017-01-25T14:23:03.927Z,94.273
2017-01-25T14:25:56.936Z,94.156
2017-01-25T14:28:49.796Z,94.405
2017-01-25T14:31:44.293Z,93.728
2017-01-25T14:34:35.638Z,94.500
2017-01-25T14:37:30.224Z,94.288
2017-01-25T14:40:23.374Z,94.203
2017-01-25T14:43:14.353Z,94.394
2017-01-25T14:46:09.148Z,94.830
2017-01-25T14:49:00.553Z,94.583
2017-01-25T14:54:48.060Z,94.173
2017-01-25T14:57:41.002Z,94.678
2017-01-25T15:00:32.713Z,94.557
2017-01-25T15:03:27.223Z,94.495
2017-01-25T15:06:19.043Z,94.638
2017-01-25T15:09:11.984Z,94.953
2017-01-25T15:12:05.018Z,94.535
2017-01-25T15:14:57.919Z,95.154
2017-01-25T15:17:50.801Z,95.161
2017-01-25T15:20:45.408Z,95.118
2017-01-25T15:23:36.811Z,95.330
2017-01-25T15:26:31.548Z,94.767
2017-01-25T15:29:22.866Z,95.438
2017-01-25T15:32:15.764Z,95.138
2017-01-25T15:35:09.001Z,95.205
2017-01-25T15:38:01.993Z,95.258
2017-01-25T15:40:54.867Z,95.146
2017-01-25T15:43:49.313Z,95.298
2017-01-25T15:46:43.192Z,94.812
2017-01-25T15:49:35.113Z,95.007
2017-01-25T15:52:26.736Z,95.079
2017-01-25T15:58:12.716Z,95.152
2017-01-25T16:01:05.654Z,95.338
2017-01-25T16:03:59.560Z,94.801
2017-01-25T16:06:51.463Z,95.278
2017-01-25T16:09:44.498Z,95.023
2017-01-25T16:15:31.955Z,95.255
2017-01-25T16:18:24.836Z,95.243
2017-01-25T16:21:16.811Z,95.331
2017-01-25T16:24:08.644Z,95.447
2017-01-25T16:27:03.273Z,95.429
2017-01-25T16:29:56.343Z,95.175
2017-01-25T16:32:49.431Z,95.306
2017-01-25T16:35:40.520Z,95.396
2017-01-25T16:38:33.436Z,95.337
2017-01-25T16:44:19.960Z,95.099
2017-01-25T16:47:13.342Z,95.275
2017-01-25T16:50:05.556Z,95.285
2017-01-25T16:53:00.295Z,95.802
2017-01-25T16:55:51.520Z,95.799
2017-01-25T16:58:46.363Z,95.738
2017-01-25T17:01:39.208Z,95.734
2017-01-25T17:04:32.185Z,95.951
2017-01-25T17:07:23.048Z,95.796
2017-01-25T17:10:16.157Z,95.754
2017-01-25T17:13:11.758Z,96.076
2017-01-25T17:18:56.363Z,96.253
2017-01-25T17:21:47.442Z,96.034
2017-01-25T17:24:40.341Z,95.758
2017-01-25T17:27:34.986Z,96.176
2017-01-25T17:33:19.473Z,96.149
2017-01-25T17:36:14.442Z,96.287
2017-01-25T17:39:05.762Z,96.261
2017-01-25T17:41:58.710Z,96.221
2017-01-25T17:44:51.278Z,96.167
2017-01-25T17:47:44.619Z,96.043
2017-01-25T17:53:30.913Z,95.935
2017-01-25T17:56:23.366Z,96.222
2017-01-25T17:59:18.054Z,96.043
2017-01-25T18:05:02.374Z,95.945
2017-01-25T18:07:55.911Z,95.985
2017-01-25T18:10:47.786Z,96.212
2017-01-25T18:13:42.499Z,96.177
2017-01-25T18:16:33.714Z,96.234
2017-01-25T18:19:26.776Z,96.170
2017-01-25T18:22:20.333Z,96.258
2017-01-25T18:25:15.443Z,96.090
2017-01-25T18:28:09.211Z,95.969
2017-01-25T18:33:53.380Z,96.079
2017-01-25T18:36:46.236Z,95.964
2017-01-25T18:39:39.855Z,96.250
2017-01-25T18:42:31.909Z,96.247
2017-01-25T18:45:26.551Z,96.149
2017-01-25T18:48:17.830Z,96.474
2017-01-25T18:51:12.411Z,96.398
2017-01-25T18:54:05.382Z,96.295
2017-01-25T18:56:56.498Z,96.555
2017-01-25T18:59:51.098Z,96.460
2017-01-25T19:02:42.435Z,96.901
2017-01-25T19:05:37.031Z,97.050
2017-01-25T19:08:28.112Z,96.938
2017-01-25T19:11:21.175Z,96.993
2017-01-25T19:14:15.841Z,96.832
2017-01-25T19:17:06.998Z,96.960
2017-01-25T19:20:01.557Z,96.489
2017-01-25T19:22:54.675Z,96.561
2017-01-25T19:25:45.902Z,96.875
2017-01-25T19:28:40.516Z,97.030
2017-01-25T19:31:31.849Z,97.056
2017-01-25T19:34:26.596Z,96.734
2017-01-25T19:37:19.524Z,96.843
2017-01-25T19:40:11.791Z,97.184
2017-01-25T19:43:03.852Z,96.806
2017-01-25T19:45:58.638Z,96.755
2017-01-25T19:48:50.014Z,96.747
2017-01-25T19:51:45.558Z,96.714
2017-01-25T19:54:37.543Z,96.871
2017-01-25T19:57:28.750Z,96.774
2017-01-25T20:00:23.578Z,96.887
2017-01-25T20:03:15.295Z,96.747
2017-01-25T20:06:09.752Z,96.811
2017-01-25T20:09:02.703Z,96.633
2017-01-25T20:11:53.887Z,96.732
2017-01-25T20:14:48.030Z,97.066
2017-01-25T20:17:42.548Z,96.663
2017-01-25T20:20:33.248Z,96.745
2017-01-25T20:23:26.095Z,96.686
2017-01-25T20:26:20.922Z,96.680
2017-01-25T20:29:12.083Z,96.537
2017-01-25T20:32:06.802Z,96.574
2017-01-25T20:34:59.959Z,96.690
2017-01-25T20:37:52.827Z,96.677
2017-01-25T20:40:45.829Z,97.179
2017-01-25T20:43:38.166Z,97.083
2017-01-25T20:46:31.884Z,97.329
2017-01-25T20:49:23.144Z,97.149
2017-01-25T20:52:17.722Z,96.988
2017-01-25T20:55:09.194Z,97.240
2017-01-25T20:58:02.168Z,97.187
2017-01-25T21:00:57.596Z,97.270
2017-01-25T21:03:48.041Z,96.961
2017-01-25T21:06:42.720Z,97.069
2017-01-25T21:09:35.583Z,97.154
2017-01-25T21:12:28.637Z,97.486
2017-01-25T21:15:21.541Z,97.814
2017-01-25T21:18:15.543Z,98.059
2017-01-25T21:21:05.684Z,98.004
2017-01-25T21:23:58.629Z,98.008
2017-01-25T21:26:53.162Z,98.023
2017-01-25T21:29:44.425Z,98.103
2017-01-25T21:32:37.369Z,98.286
2017-01-25T21:35:30.255Z,98.161
2017-01-25T21:38:23.149Z,98.450
2017-01-25T21:41:16.662Z,98.778
2017-01-25T21:44:09.621Z,98.817
2017-01-25T21:47:02.624Z,99.087
2017-01-25T21:49:55.770Z,99.339
2017-01-25T21:52:48.504Z,99.444
2017-01-25T21:55:43.152Z,99.299
2017-01-25T21:58:34.597Z,99.060
2017-01-25T22:01:27.896Z,98.951
2017-01-25T22:04:22.600Z,99.124
2017-01-25T22:07:14.611Z,99.518
2017-01-25T22:10:07.040Z,99.767
2017-01-25T22:12:59.910Z,99.679
2017-01-25T22:15:52.803Z,99.364
2017-01-25T22:18:45.528Z,99.364
2017-01-25T22:21:39.343Z,99.578
2017-01-25T22:24:33.047Z,99.405
2017-01-25T22:27:24.143Z,99.361
2017-01-25T22:30:17.048Z,99.521
2017-01-25T22:33:11.754Z,99.355
2017-01-25T22:36:04.779Z,99.219
2017-01-25T22:38:56.156Z,99.119
2017-01-25T22:41:50.629Z,99.556
2017-01-25T22:44:41.962Z,99.576
2017-01-25T22:47:34.757Z,99.551
2017-01-25T22:50:27.670Z,99.625
2017-01-25T22:53:20.511Z,99.858
2017-01-25T22:56:15.081Z,100.000
2017-01-25T22:59:08.136Z,99.660
2017-01-25T23:01:59.328Z,99.896
2017-01-25T23:04:53.905Z,100.000
2017-01-25T23:07:46.894Z,100.000
2017-01-25T23:10:39.967Z,100.000
2017-01-25T23:13:31.817Z,99.833
2017-01-25T23:16:24.308Z,99.828
2017-01-25T23:19:16.997Z,99.936
2017-01-25T23:22:09.942Z,100.000
2017-01-25T23:25:03.153Z,99.782
2017-01-25T23:27:57.860Z,99.729
2017-01-25T23:30:49.181Z,99.570
2017-01-25T23:33:43.954Z,99.400
2017-01-25T23:36:35.700Z,99.308
2017-01-25T23:39:30.364Z,99.297
2017-01-25T23:42:22.106Z,99.294
2017-01-25T23:45:15.066Z,99.355
2017-01-25T23:48:08.072Z,99.327
2017-01-25T23:51:01.017Z,99.210
2017-01-25T23:53:53.911Z,99.329
2017-01-25T23:56:46.924Z,99.248
2017-01-25T23:59:39.813Z,99.271
